sensor_id;sensor_type;location;lat;lon;timestamp;pressure;altitude;pressure_sealevel;temperature
78917;BMP280;68315;48.608;11.436;2024-03-22T00:02:10;97952.31;;;5.97
78917;BMP280;68315;48.608;11.436;2024-03-22T00:04:37;97953.72;;;5.93
78917;BMP280;68315;48.608;11.436;2024-03-22T00:07:02;97946.47;;;5.90
78917;BMP280;68315;48.608;11.436;2024-03-22T00:09:28;97953.94;;;5.89
78917;BMP280;68315;48.608;11.436;2024-03-22T00:11:53;97954.66;;;5.90
78917;BMP280;68315;48.608;11.436;2024-03-22T00:14:18;97947.81;;;5.94
78917;BMP280;68315;48.608;11.436;2024-03-22T00:16:43;97947.63;;;5.98
78917;BMP280;68315;48.608;11.436;2024-03-22T00:19:09;97940.91;;;5.99
78917;BMP280;68315;48.608;11.436;2024-03-22T00:21:34;97948.34;;;5.98
78917;BMP280;68315;48.608;11.436;2024-03-22T00:24:00;97943.88;;;6.01
78917;BMP280;68315;48.608;11.436;2024-03-22T00:26:26;97937.69;;;6.00
78917;BMP280;68315;48.608;11.436;2024-03-22T00:28:51;97928.81;;;6.05
78917;BMP280;68315;48.608;11.436;2024-03-22T00:31:16;97931.38;;;6.09
78917;BMP280;68315;48.608;11.436;2024-03-22T00:33:42;97936.59;;;6.12
78917;BMP280;68315;48.608;11.436;2024-03-22T00:36:07;97925.94;;;6.14
78917;BMP280;68315;48.608;11.436;2024-03-22T00:38:33;97936.09;;;6.14
78917;BMP280;68315;48.608;11.436;2024-03-22T00:40:58;97920.97;;;6.13
78917;BMP280;68315;48.608;11.436;2024-03-22T00:43:23;97918.00;;;6.11
78917;BMP280;68315;48.608;11.436;2024-03-22T00:45:48;97912.03;;;6.12
78917;BMP280;68315;48.608;11.436;2024-03-22T00:48:14;97907.06;;;6.11
78917;BMP280;68315;48.608;11.436;2024-03-22T00:50:39;97905.84;;;6.12
78917;BMP280;68315;48.608;11.436;2024-03-22T00:53:04;97898.66;;;6.14
78917;BMP280;68315;48.608;11.436;2024-03-22T00:55:31;97900.91;;;6.16
78917;BMP280;68315;48.608;11.436;2024-03-22T00:57:56;97898.66;;;6.14
78917;BMP280;68315;48.608;11.436;2024-03-22T01:00:22;97896.66;;;6.15
78917;BMP280;68315;48.608;11.436;2024-03-22T01:02:47;97884.03;;;6.12
78917;BMP280;68315;48.608;11.436;2024-03-22T01:05:12;97878.81;;;6.14
78917;BMP280;68315;48.608;11.436;2024-03-22T01:07:37;97868.72;;;6.20
78917;BMP280;68315;48.608;11.436;2024-03-22T01:10:04;97869.75;;;6.22
78917;BMP280;68315;48.608;11.436;2024-03-22T01:12:29;97867.75;;;6.23
78917;BMP280;68315;48.608;11.436;2024-03-22T01:14:54;97856.28;;;6.19
78917;BMP280;68315;48.608;11.436;2024-03-22T01:17:20;97860.94;;;6.13
78917;BMP280;68315;48.608;11.436;2024-03-22T01:19:45;97855.16;;;6.05
78917;BMP280;68315;48.608;11.436;2024-03-22T01:22:10;97851.63;;;5.99
78917;BMP280;68315;48.608;11.436;2024-03-22T01:24:35;97863.72;;;5.93
78917;BMP280;68315;48.608;11.436;2024-03-22T01:27:01;97871.63;;;5.91
78917;BMP280;68315;48.608;11.436;2024-03-22T01:29:26;97861.41;;;5.86
78917;BMP280;68315;48.608;11.436;2024-03-22T01:31:55;97850.44;;;5.80
78917;BMP280;68315;48.608;11.436;2024-03-22T01:34:20;97849.13;;;5.76
78917;BMP280;68315;48.608;11.436;2024-03-22T01:36:45;97854.81;;;5.72
78917;BMP280;68315;48.608;11.436;2024-03-22T01:39:11;97855.25;;;5.70
78917;BMP280;68315;48.608;11.436;2024-03-22T01:41:36;97856.47;;;5.64
78917;BMP280;68315;48.608;11.436;2024-03-22T01:44:01;97864.84;;;5.60
78917;BMP280;68315;48.608;11.436;2024-03-22T01:46:26;97861.16;;;5.63
78917;BMP280;68315;48.608;11.436;2024-03-22T01:48:52;97849.41;;;5.57
78917;BMP280;68315;48.608;11.436;2024-03-22T01:51:18;97852.84;;;5.52
78917;BMP280;68315;48.608;11.436;2024-03-22T01:53:43;97851.06;;;5.49
78917;BMP280;68315;48.608;11.436;2024-03-22T01:56:08;97852.47;;;5.45
78917;BMP280;68315;48.608;11.436;2024-03-22T01:58:34;97838.53;;;5.37
78917;BMP280;68315;48.608;11.436;2024-03-22T02:00:59;97840.16;;;5.29
78917;BMP280;68315;48.608;11.436;2024-03-22T02:03:25;97850.97;;;5.24
78917;BMP280;68315;48.608;11.436;2024-03-22T02:05:53;97846.81;;;5.28
78917;BMP280;68315;48.608;11.436;2024-03-22T02:08:19;97842.19;;;5.34
78917;BMP280;68315;48.608;11.436;2024-03-22T02:10:44;97838.72;;;5.34
78917;BMP280;68315;48.608;11.436;2024-03-22T02:13:10;97836.66;;;5.29
78917;BMP280;68315;48.608;11.436;2024-03-22T02:15:35;97838.81;;;5.25
78917;BMP280;68315;48.608;11.436;2024-03-22T02:18:00;97831.34;;;5.20
78917;BMP280;68315;48.608;11.436;2024-03-22T02:20:26;97835.31;;;5.19
78917;BMP280;68315;48.608;11.436;2024-03-22T02:22:51;97831.84;;;5.18
78917;BMP280;68315;48.608;11.436;2024-03-22T02:25:16;97829.50;;;5.11
78917;BMP280;68315;48.608;11.436;2024-03-22T02:27:42;97823.97;;;5.06
78917;BMP280;68315;48.608;11.436;2024-03-22T02:30:08;97817.50;;;5.03
78917;BMP280;68315;48.608;11.436;2024-03-22T02:32:33;97814.97;;;4.99
78917;BMP280;68315;48.608;11.436;2024-03-22T02:34:58;97805.03;;;4.96
78917;BMP280;68315;48.608;11.436;2024-03-22T02:37:24;97806.44;;;4.92
78917;BMP280;68315;48.608;11.436;2024-03-22T02:39:49;97805.94;;;4.88
78917;BMP280;68315;48.608;11.436;2024-03-22T02:42:14;97799.91;;;4.84
78917;BMP280;68315;48.608;11.436;2024-03-22T02:44:39;97798.88;;;4.81
78917;BMP280;68315;48.608;11.436;2024-03-22T02:47:09;97800.59;;;4.79
78917;BMP280;68315;48.608;11.436;2024-03-22T02:49:34;97799.81;;;4.78
78917;BMP280;68315;48.608;11.436;2024-03-22T02:51:59;97797.28;;;4.75
78917;BMP280;68315;48.608;11.436;2024-03-22T02:54:25;97793.53;;;4.72
78917;BMP280;68315;48.608;11.436;2024-03-22T02:56:52;97808.66;;;4.73
78917;BMP280;68315;48.608;11.436;2024-03-22T02:59:17;97803.97;;;4.74
78917;BMP280;68315;48.608;11.436;2024-03-22T03:01:43;97803.41;;;4.70
78917;BMP280;68315;48.608;11.436;2024-03-22T03:04:08;97816.00;;;4.67
78917;BMP280;68315;48.608;11.436;2024-03-22T03:06:33;97806.50;;;4.63
78917;BMP280;68315;48.608;11.436;2024-03-22T03:08:58;97798.81;;;4.61
78917;BMP280;68315;48.608;11.436;2024-03-22T03:11:24;97782.50;;;4.61
78917;BMP280;68315;48.608;11.436;2024-03-22T03:13:49;97786.72;;;4.62
78917;BMP280;68315;48.608;11.436;2024-03-22T03:16:14;97784.00;;;4.62
78917;BMP280;68315;48.608;11.436;2024-03-22T03:18:39;97776.88;;;4.65
78917;BMP280;68315;48.608;11.436;2024-03-22T03:21:06;97775.00;;;4.71
78917;BMP280;68315;48.608;11.436;2024-03-22T03:23:31;97766.13;;;4.76
78917;BMP280;68315;48.608;11.436;2024-03-22T03:25:56;97773.81;;;4.77
78917;BMP280;68315;48.608;11.436;2024-03-22T03:28:22;97766.66;;;4.80
78917;BMP280;68315;48.608;11.436;2024-03-22T03:30:47;97775.13;;;4.82
78917;BMP280;68315;48.608;11.436;2024-03-22T03:33:12;97772.88;;;4.80
78917;BMP280;68315;48.608;11.436;2024-03-22T03:35:37;97778.03;;;4.78
78917;BMP280;68315;48.608;11.436;2024-03-22T03:38:02;97774.47;;;4.72
78917;BMP280;68315;48.608;11.436;2024-03-22T03:40:28;97772.44;;;4.67
78917;BMP280;68315;48.608;11.436;2024-03-22T03:42:53;97764.75;;;4.66
78917;BMP280;68315;48.608;11.436;2024-03-22T03:45:19;97754.53;;;4.61
78917;BMP280;68315;48.608;11.436;2024-03-22T03:47:44;97753.50;;;4.58
78917;BMP280;68315;48.608;11.436;2024-03-22T03:50:09;97761.84;;;4.55
78917;BMP280;68315;48.608;11.436;2024-03-22T03:52:35;97760.28;;;4.48
78917;BMP280;68315;48.608;11.436;2024-03-22T03:55:00;97754.75;;;4.43
78917;BMP280;68315;48.608;11.436;2024-03-22T03:57:25;97762.34;;;4.39
78917;BMP280;68315;48.608;11.436;2024-03-22T03:59:51;97759.81;;;4.35
78917;BMP280;68315;48.608;11.436;2024-03-22T04:02:16;97764.16;;;4.27
78917;BMP280;68315;48.608;11.436;2024-03-22T04:04:41;97755.91;;;4.21
78917;BMP280;68315;48.608;11.436;2024-03-22T04:07:07;97760.47;;;4.15
78917;BMP280;68315;48.608;11.436;2024-03-22T04:09:32;97758.72;;;4.12
78917;BMP280;68315;48.608;11.436;2024-03-22T04:11:58;97753.47;;;4.09
78917;BMP280;68315;48.608;11.436;2024-03-22T04:14:27;97751.03;;;4.11
78917;BMP280;68315;48.608;11.436;2024-03-22T04:16:52;97747.09;;;4.12
78917;BMP280;68315;48.608;11.436;2024-03-22T04:19:20;97751.78;;;4.11
78917;BMP280;68315;48.608;11.436;2024-03-22T04:21:45;97741.53;;;4.06
78917;BMP280;68315;48.608;11.436;2024-03-22T04:24:10;97735.72;;;3.99
78917;BMP280;68315;48.608;11.436;2024-03-22T04:26:35;97735.91;;;3.95
78917;BMP280;68315;48.608;11.436;2024-03-22T04:29:00;97725.78;;;3.96
78917;BMP280;68315;48.608;11.436;2024-03-22T04:31:26;97739.47;;;4.01
78917;BMP280;68315;48.608;11.436;2024-03-22T04:33:51;97741.38;;;4.10
78917;BMP280;68315;48.608;11.436;2024-03-22T04:36:16;97738.72;;;4.15
78917;BMP280;68315;48.608;11.436;2024-03-22T04:38:41;97718.56;;;4.22
78917;BMP280;68315;48.608;11.436;2024-03-22T04:41:07;97736.94;;;4.27
78917;BMP280;68315;48.608;11.436;2024-03-22T04:43:32;97727.84;;;4.30
78917;BMP280;68315;48.608;11.436;2024-03-22T04:45:57;97732.84;;;4.31
78917;BMP280;68315;48.608;11.436;2024-03-22T04:48:23;97741.28;;;4.33
78917;BMP280;68315;48.608;11.436;2024-03-22T04:50:52;97742.22;;;4.30
78917;BMP280;68315;48.608;11.436;2024-03-22T04:53:19;97740.44;;;4.27
78917;BMP280;68315;48.608;11.436;2024-03-22T04:55:46;97736.84;;;4.21
78917;BMP280;68315;48.608;11.436;2024-03-22T04:58:16;97739.03;;;4.17
78917;BMP280;68315;48.608;11.436;2024-03-22T05:00:42;97739.19;;;4.14
78917;BMP280;68315;48.608;11.436;2024-03-22T05:03:07;97741.38;;;4.10
78917;BMP280;68315;48.608;11.436;2024-03-22T05:05:33;97739.13;;;4.08
78917;BMP280;68315;48.608;11.436;2024-03-22T05:07:59;97735.06;;;4.04
78917;BMP280;68315;48.608;11.436;2024-03-22T05:10:24;97739.03;;;4.03
78917;BMP280;68315;48.608;11.436;2024-03-22T05:12:49;97754.59;;;4.02
78917;BMP280;68315;48.608;11.436;2024-03-22T05:15:14;97748.56;;;3.98
78917;BMP280;68315;48.608;11.436;2024-03-22T05:17:40;97739.84;;;3.94
78917;BMP280;68315;48.608;11.436;2024-03-22T05:20:06;97737.06;;;3.89
78917;BMP280;68315;48.608;11.436;2024-03-22T05:22:36;97739.38;;;3.81
78917;BMP280;68315;48.608;11.436;2024-03-22T05:25:01;97739.28;;;3.76
78917;BMP280;68315;48.608;11.436;2024-03-22T05:27:26;97742.47;;;3.74
78917;BMP280;68315;48.608;11.436;2024-03-22T05:29:52;97741.44;;;3.72
78917;BMP280;68315;48.608;11.436;2024-03-22T05:32:17;97741.91;;;3.70
78917;BMP280;68315;48.608;11.436;2024-03-22T05:34:42;97746.13;;;3.71
78917;BMP280;68315;48.608;11.436;2024-03-22T05:37:07;97740.44;;;3.69
78917;BMP280;68315;48.608;11.436;2024-03-22T05:39:34;97732.72;;;3.67
78917;BMP280;68315;48.608;11.436;2024-03-22T05:41:59;97736.75;;;3.72
78917;BMP280;68315;48.608;11.436;2024-03-22T05:44:24;97729.91;;;3.77
78917;BMP280;68315;48.608;11.436;2024-03-22T05:46:49;97730.28;;;3.84
78917;BMP280;68315;48.608;11.436;2024-03-22T05:49:16;97736.13;;;3.92
78917;BMP280;68315;48.608;11.436;2024-03-22T05:51:41;97731.06;;;3.99
78917;BMP280;68315;48.608;11.436;2024-03-22T05:54:06;97730.22;;;4.08
78917;BMP280;68315;48.608;11.436;2024-03-22T05:56:32;97725.69;;;4.19
78917;BMP280;68315;48.608;11.436;2024-03-22T05:58:57;97719.50;;;4.33
78917;BMP280;68315;48.608;11.436;2024-03-22T06:01:23;97717.50;;;4.49
78917;BMP280;68315;48.608;11.436;2024-03-22T06:03:48;97714.28;;;4.65
78917;BMP280;68315;48.608;11.436;2024-03-22T06:06:13;97716.72;;;4.83
78917;BMP280;68315;48.608;11.436;2024-03-22T06:08:38;97717.88;;;4.96
78917;BMP280;68315;48.608;11.436;2024-03-22T06:11:07;97712.09;;;5.09
78917;BMP280;68315;48.608;11.436;2024-03-22T06:13:32;97712.72;;;5.19
78917;BMP280;68315;48.608;11.436;2024-03-22T06:15:58;97711.81;;;5.27
78917;BMP280;68315;48.608;11.436;2024-03-22T06:18:24;97705.22;;;5.34
78917;BMP280;68315;48.608;11.436;2024-03-22T06:20:50;97711.72;;;5.42
78917;BMP280;68315;48.608;11.436;2024-03-22T06:23:15;97714.81;;;5.49
78917;BMP280;68315;48.608;11.436;2024-03-22T06:25:40;97717.34;;;5.58
78917;BMP280;68315;48.608;11.436;2024-03-22T06:28:05;97710.28;;;5.66
78917;BMP280;68315;48.608;11.436;2024-03-22T06:30:31;97720.25;;;5.75
78917;BMP280;68315;48.608;11.436;2024-03-22T06:32:56;97720.59;;;5.88
78917;BMP280;68315;48.608;11.436;2024-03-22T06:35:21;97711.53;;;5.97
78917;BMP280;68315;48.608;11.436;2024-03-22T06:37:47;97720.00;;;6.04
78917;BMP280;68315;48.608;11.436;2024-03-22T06:40:13;97711.41;;;6.17
78917;BMP280;68315;48.608;11.436;2024-03-22T06:42:39;97710.25;;;6.29
78917;BMP280;68315;48.608;11.436;2024-03-22T06:45:05;97704.16;;;6.40
78917;BMP280;68315;48.608;11.436;2024-03-22T06:47:30;97698.44;;;6.43
78917;BMP280;68315;48.608;11.436;2024-03-22T06:49:55;97705.13;;;6.42
78917;BMP280;68315;48.608;11.436;2024-03-22T06:52:20;97701.66;;;6.42
78917;BMP280;68315;48.608;11.436;2024-03-22T06:54:46;97696.19;;;6.42
78917;BMP280;68315;48.608;11.436;2024-03-22T06:57:12;97696.72;;;6.40
78917;BMP280;68315;48.608;11.436;2024-03-22T06:59:37;97699.69;;;6.42
78917;BMP280;68315;48.608;11.436;2024-03-22T07:02:03;97694.72;;;6.46
78917;BMP280;68315;48.608;11.436;2024-03-22T07:04:28;97694.00;;;6.46
78917;BMP280;68315;48.608;11.436;2024-03-22T07:06:53;97695.28;;;6.50
78917;BMP280;68315;48.608;11.436;2024-03-22T07:09:18;97700.75;;;6.56
78917;BMP280;68315;48.608;11.436;2024-03-22T07:11:44;97697.56;;;6.63
78917;BMP280;68315;48.608;11.436;2024-03-22T07:14:09;97694.63;;;6.72
78917;BMP280;68315;48.608;11.436;2024-03-22T07:16:34;97684.50;;;6.83
78917;BMP280;68315;48.608;11.436;2024-03-22T07:19:02;97690.75;;;6.95
78917;BMP280;68315;48.608;11.436;2024-03-22T07:21:27;97692.31;;;7.13
78917;BMP280;68315;48.608;11.436;2024-03-22T07:23:52;97670.75;;;7.26
78917;BMP280;68315;48.608;11.436;2024-03-22T07:26:17;97672.25;;;7.38
78917;BMP280;68315;48.608;11.436;2024-03-22T07:28:42;97674.25;;;7.48
78917;BMP280;68315;48.608;11.436;2024-03-22T07:31:08;97663.81;;;7.58
78917;BMP280;68315;48.608;11.436;2024-03-22T07:33:33;97670.06;;;7.69
78917;BMP280;68315;48.608;11.436;2024-03-22T07:36:02;97664.81;;;7.82
78917;BMP280;68315;48.608;11.436;2024-03-22T07:38:28;97663.28;;;7.98
78917;BMP280;68315;48.608;11.436;2024-03-22T07:40:54;97662.78;;;8.16
78917;BMP280;68315;48.608;11.436;2024-03-22T07:43:19;97666.47;;;8.30
78917;BMP280;68315;48.608;11.436;2024-03-22T07:45:44;97664.47;;;8.41
78917;BMP280;68315;48.608;11.436;2024-03-22T07:48:09;97657.47;;;8.46
78917;BMP280;68315;48.608;11.436;2024-03-22T07:50:36;97666.41;;;8.52
78917;BMP280;68315;48.608;11.436;2024-03-22T07:53:01;97659.44;;;8.56
78917;BMP280;68315;48.608;11.436;2024-03-22T07:55:26;97662.88;;;8.68
78917;BMP280;68315;48.608;11.436;2024-03-22T07:57:52;97671.28;;;8.81
78917;BMP280;68315;48.608;11.436;2024-03-22T08:00:17;97661.75;;;8.99
78917;BMP280;68315;48.608;11.436;2024-03-22T08:02:42;97666.13;;;9.18
78917;BMP280;68315;48.608;11.436;2024-03-22T08:05:08;97678.72;;;9.38
78917;BMP280;68315;48.608;11.436;2024-03-22T08:07:33;97672.34;;;9.54
78917;BMP280;68315;48.608;11.436;2024-03-22T08:09:58;97669.03;;;9.67
78917;BMP280;68315;48.608;11.436;2024-03-22T08:12:25;97669.44;;;9.76
78917;BMP280;68315;48.608;11.436;2024-03-22T08:14:50;97671.03;;;9.90
78917;BMP280;68315;48.608;11.436;2024-03-22T08:17:15;97661.22;;;10.00
78917;BMP280;68315;48.608;11.436;2024-03-22T08:19:41;97661.88;;;10.06
78917;BMP280;68315;48.608;11.436;2024-03-22T08:22:07;97659.56;;;10.16
78917;BMP280;68315;48.608;11.436;2024-03-22T08:24:32;97659.66;;;10.29
78917;BMP280;68315;48.608;11.436;2024-03-22T08:26:57;97658.28;;;10.41
78917;BMP280;68315;48.608;11.436;2024-03-22T08:29:22;97661.44;;;10.51
78917;BMP280;68315;48.608;11.436;2024-03-22T08:31:47;97673.31;;;10.59
78917;BMP280;68315;48.608;11.436;2024-03-22T08:34:13;97657.25;;;10.63
78917;BMP280;68315;48.608;11.436;2024-03-22T08:36:38;97652.22;;;10.67
78917;BMP280;68315;48.608;11.436;2024-03-22T08:39:04;97646.13;;;10.74
78917;BMP280;68315;48.608;11.436;2024-03-22T08:41:30;97660.78;;;10.82
78917;BMP280;68315;48.608;11.436;2024-03-22T08:43:55;97654.78;;;10.83
78917;BMP280;68315;48.608;11.436;2024-03-22T08:46:22;97652.78;;;10.84
78917;BMP280;68315;48.608;11.436;2024-03-22T08:48:48;97650.69;;;10.90
78917;BMP280;68315;48.608;11.436;2024-03-22T08:51:13;97647.75;;;11.01
78917;BMP280;68315;48.608;11.436;2024-03-22T08:53:38;97652.44;;;11.06
78917;BMP280;68315;48.608;11.436;2024-03-22T08:56:04;97646.13;;;11.11
78917;BMP280;68315;48.608;11.436;2024-03-22T08:58:29;97644.25;;;11.19
78917;BMP280;68315;48.608;11.436;2024-03-22T09:00:54;97636.66;;;11.25
78917;BMP280;68315;48.608;11.436;2024-03-22T09:03:20;97644.06;;;11.30
78917;BMP280;68315;48.608;11.436;2024-03-22T09:05:46;97639.75;;;11.35
78917;BMP280;68315;48.608;11.436;2024-03-22T09:08:11;97634.06;;;11.46
78917;BMP280;68315;48.608;11.436;2024-03-22T09:10:36;97624.44;;;11.52
78917;BMP280;68315;48.608;11.436;2024-03-22T09:13:02;97622.66;;;11.55
78917;BMP280;68315;48.608;11.436;2024-03-22T09:15:27;97627.03;;;11.63
78917;BMP280;68315;48.608;11.436;2024-03-22T09:17:52;97619.72;;;11.66
78917;BMP280;68315;48.608;11.436;2024-03-22T09:20:18;97614.13;;;11.71
78917;BMP280;68315;48.608;11.436;2024-03-22T09:22:43;97619.72;;;11.79
78917;BMP280;68315;48.608;11.436;2024-03-22T09:25:08;97614.34;;;11.87
78917;BMP280;68315;48.608;11.436;2024-03-22T09:27:33;97619.66;;;11.98
78917;BMP280;68315;48.608;11.436;2024-03-22T09:29:59;97609.47;;;12.06
78917;BMP280;68315;48.608;11.436;2024-03-22T09:32:26;97608.06;;;12.12
78917;BMP280;68315;48.608;11.436;2024-03-22T09:34:51;97611.16;;;12.22
78917;BMP280;68315;48.608;11.436;2024-03-22T09:37:17;97610.50;;;12.29
78917;BMP280;68315;48.608;11.436;2024-03-22T09:39:42;97608.25;;;12.40
78917;BMP280;68315;48.608;11.436;2024-03-22T09:42:08;97605.81;;;12.50
78917;BMP280;68315;48.608;11.436;2024-03-22T09:44:34;97611.09;;;12.61
78917;BMP280;68315;48.608;11.436;2024-03-22T09:47:00;97603.13;;;12.71
78917;BMP280;68315;48.608;11.436;2024-03-22T09:49:25;97593.44;;;12.77
78917;BMP280;68315;48.608;11.436;2024-03-22T09:51:51;97587.56;;;12.81
78917;BMP280;68315;48.608;11.436;2024-03-22T09:54:17;97588.41;;;12.89
78917;BMP280;68315;48.608;11.436;2024-03-22T09:56:43;97587.19;;;12.97
78917;BMP280;68315;48.608;11.436;2024-03-22T09:59:09;97583.81;;;13.12
78917;BMP280;68315;48.608;11.436;2024-03-22T10:01:36;97585.97;;;13.26
78917;BMP280;68315;48.608;11.436;2024-03-22T10:04:02;97579.47;;;13.37
78917;BMP280;68315;48.608;11.436;2024-03-22T10:06:29;97586.19;;;13.49
78917;BMP280;68315;48.608;11.436;2024-03-22T10:08:54;97577.25;;;13.64
78917;BMP280;68315;48.608;11.436;2024-03-22T10:11:20;97578.56;;;13.70
78917;BMP280;68315;48.608;11.436;2024-03-22T10:13:45;97581.59;;;13.80
78917;BMP280;68315;48.608;11.436;2024-03-22T10:16:16;97587.13;;;13.87
78917;BMP280;68315;48.608;11.436;2024-03-22T10:18:41;97586.09;;;13.98
78917;BMP280;68315;48.608;11.436;2024-03-22T10:21:07;97576.53;;;14.06
78917;BMP280;68315;48.608;11.436;2024-03-22T10:23:32;97581.06;;;14.24
78917;BMP280;68315;48.608;11.436;2024-03-22T10:25:58;97579.97;;;14.35
78917;BMP280;68315;48.608;11.436;2024-03-22T10:28:25;97573.91;;;14.36
78917;BMP280;68315;48.608;11.436;2024-03-22T10:30:50;97572.09;;;14.39
78917;BMP280;68315;48.608;11.436;2024-03-22T10:33:18;97565.44;;;14.42
78917;BMP280;68315;48.608;11.436;2024-03-22T10:35:44;97563.81;;;14.47
78917;BMP280;68315;48.608;11.436;2024-03-22T10:38:09;97566.03;;;14.48
78917;BMP280;68315;48.608;11.436;2024-03-22T10:40:36;97555.53;;;14.47
78917;BMP280;68315;48.608;11.436;2024-03-22T10:43:02;97562.72;;;14.50
78917;BMP280;68315;48.608;11.436;2024-03-22T10:45:29;97564.56;;;14.55
78917;BMP280;68315;48.608;11.436;2024-03-22T10:47:55;97554.06;;;14.61
78917;BMP280;68315;48.608;11.436;2024-03-22T10:50:22;97551.50;;;14.70
78917;BMP280;68315;48.608;11.436;2024-03-22T10:52:52;97546.34;;;14.74
78917;BMP280;68315;48.608;11.436;2024-03-22T10:55:24;97540.63;;;14.72
78917;BMP280;68315;48.608;11.436;2024-03-22T10:57:49;97539.88;;;14.79
78917;BMP280;68315;48.608;11.436;2024-03-22T11:00:16;97534.00;;;14.90
78917;BMP280;68315;48.608;11.436;2024-03-22T11:02:44;97530.69;;;15.07
78917;BMP280;68315;48.608;11.436;2024-03-22T11:05:17;97530.31;;;15.18
78917;BMP280;68315;48.608;11.436;2024-03-22T11:07:43;97510.38;;;15.19
78917;BMP280;68315;48.608;11.436;2024-03-22T11:10:11;97503.28;;;15.41
78917;BMP280;68315;48.608;11.436;2024-03-22T11:12:37;97494.56;;;15.60
78917;BMP280;68315;48.608;11.436;2024-03-22T11:15:03;97487.31;;;15.79
78917;BMP280;68315;48.608;11.436;2024-03-22T11:17:28;97486.63;;;16.03
78917;BMP280;68315;48.608;11.436;2024-03-22T11:19:54;97483.19;;;16.20
78917;BMP280;68315;48.608;11.436;2024-03-22T11:22:19;97481.47;;;16.32
78917;BMP280;68315;48.608;11.436;2024-03-22T11:24:45;97473.28;;;16.41
78917;BMP280;68315;48.608;11.436;2024-03-22T11:27:11;97474.13;;;16.52
78917;BMP280;68315;48.608;11.436;2024-03-22T11:29:37;97465.28;;;16.70
78917;BMP280;68315;48.608;11.436;2024-03-22T11:32:07;97457.13;;;16.72
78917;BMP280;68315;48.608;11.436;2024-03-22T11:34:36;97449.72;;;16.75
78917;BMP280;68315;48.608;11.436;2024-03-22T11:37:02;97446.28;;;16.84
78917;BMP280;68315;48.608;11.436;2024-03-22T11:39:27;97442.06;;;17.00
78917;BMP280;68315;48.608;11.436;2024-03-22T11:41:53;97438.78;;;17.28
78917;BMP280;68315;48.608;11.436;2024-03-22T11:44:19;97428.75;;;17.59
78917;BMP280;68315;48.608;11.436;2024-03-22T11:46:44;97436.50;;;17.78
78917;BMP280;68315;48.608;11.436;2024-03-22T11:49:10;97424.44;;;17.92
78917;BMP280;68315;48.608;11.436;2024-03-22T11:51:36;97422.38;;;17.93
78917;BMP280;68315;48.608;11.436;2024-03-22T11:54:02;97405.59;;;18.00
78917;BMP280;68315;48.608;11.436;2024-03-22T11:56:28;97402.84;;;17.83
78917;BMP280;68315;48.608;11.436;2024-03-22T11:59:01;97409.31;;;17.59
78917;BMP280;68315;48.608;11.436;2024-03-22T12:01:28;97405.84;;;17.41
78917;BMP280;68315;48.608;11.436;2024-03-22T12:03:53;97398.66;;;17.38
78917;BMP280;68315;48.608;11.436;2024-03-22T12:06:20;97391.81;;;17.39
78917;BMP280;68315;48.608;11.436;2024-03-22T12:08:45;97387.44;;;17.46
78917;BMP280;68315;48.608;11.436;2024-03-22T12:11:10;97375.50;;;17.53
78917;BMP280;68315;48.608;11.436;2024-03-22T12:13:36;97372.28;;;17.74
78917;BMP280;68315;48.608;11.436;2024-03-22T12:16:03;97371.88;;;17.87
78917;BMP280;68315;48.608;11.436;2024-03-22T12:18:28;97364.81;;;17.76
78917;BMP280;68315;48.608;11.436;2024-03-22T12:20:54;97365.25;;;17.56
78917;BMP280;68315;48.608;11.436;2024-03-22T12:23:19;97352.34;;;17.68
78917;BMP280;68315;48.608;11.436;2024-03-22T12:25:44;97363.47;;;17.77
78917;BMP280;68315;48.608;11.436;2024-03-22T12:28:09;97358.50;;;17.76
78917;BMP280;68315;48.608;11.436;2024-03-22T12:30:34;97345.72;;;17.99
78917;BMP280;68315;48.608;11.436;2024-03-22T12:33:01;97341.31;;;18.51
78917;BMP280;68315;48.608;11.436;2024-03-22T12:35:26;97338.03;;;19.12
78917;BMP280;68315;48.608;11.436;2024-03-22T12:37:52;97331.78;;;19.61
78917;BMP280;68315;48.608;11.436;2024-03-22T12:40:18;97327.13;;;19.85
78917;BMP280;68315;48.608;11.436;2024-03-22T12:42:43;97323.63;;;19.85
78917;BMP280;68315;48.608;11.436;2024-03-22T12:45:09;97319.78;;;19.80
78917;BMP280;68315;48.608;11.436;2024-03-22T12:47:34;97324.72;;;19.91
78917;BMP280;68315;48.608;11.436;2024-03-22T12:49:59;97320.69;;;20.04
78917;BMP280;68315;48.608;11.436;2024-03-22T12:52:25;97309.31;;;20.11
78917;BMP280;68315;48.608;11.436;2024-03-22T12:54:50;97308.75;;;20.34
78917;BMP280;68315;48.608;11.436;2024-03-22T12:57:15;97302.75;;;20.28
78917;BMP280;68315;48.608;11.436;2024-03-22T12:59:40;97291.94;;;20.22
78917;BMP280;68315;48.608;11.436;2024-03-22T13:02:07;97297.00;;;20.35
78917;BMP280;68315;48.608;11.436;2024-03-22T13:04:32;97284.03;;;20.40
78917;BMP280;68315;48.608;11.436;2024-03-22T13:06:58;97282.78;;;20.52
78917;BMP280;68315;48.608;11.436;2024-03-22T13:09:23;97275.94;;;20.44
78917;BMP280;68315;48.608;11.436;2024-03-22T13:11:48;97288.03;;;20.16
78917;BMP280;68315;48.608;11.436;2024-03-22T13:14:14;97268.28;;;19.81
78917;BMP280;68315;48.608;11.436;2024-03-22T13:16:40;97271.84;;;19.72
78917;BMP280;68315;48.608;11.436;2024-03-22T13:19:06;97274.28;;;19.77
78917;BMP280;68315;48.608;11.436;2024-03-22T13:21:33;97264.13;;;19.51
78917;BMP280;68315;48.608;11.436;2024-03-22T13:23:58;97257.25;;;19.52
78917;BMP280;68315;48.608;11.436;2024-03-22T13:26:24;97250.28;;;19.72
78917;BMP280;68315;48.608;11.436;2024-03-22T13:28:49;97247.63;;;19.96
78917;BMP280;68315;48.608;11.436;2024-03-22T13:31:14;97248.69;;;20.12
78917;BMP280;68315;48.608;11.436;2024-03-22T13:33:40;97236.41;;;20.05
78917;BMP280;68315;48.608;11.436;2024-03-22T13:36:05;97231.88;;;19.79
78917;BMP280;68315;48.608;11.436;2024-03-22T13:38:31;97224.84;;;19.78
78917;BMP280;68315;48.608;11.436;2024-03-22T13:40:57;97227.34;;;19.74
78917;BMP280;68315;48.608;11.436;2024-03-22T13:43:23;97211.41;;;19.65
78917;BMP280;68315;48.608;11.436;2024-03-22T13:45:51;97213.94;;;19.61
78917;BMP280;68315;48.608;11.436;2024-03-22T13:48:19;97210.78;;;19.76
78917;BMP280;68315;48.608;11.436;2024-03-22T13:50:46;97204.66;;;19.68
78917;BMP280;68315;48.608;11.436;2024-03-22T13:53:11;97203.19;;;19.67
78917;BMP280;68315;48.608;11.436;2024-03-22T13:55:36;97193.16;;;19.73